createdAt,value
2023-08-07T00:01:46.698Z,12.52
2023-08-07T00:04:13.388Z,12.50
2023-08-07T00:06:39.877Z,12.55
2023-08-07T00:09:06.416Z,12.90
2023-08-07T00:11:32.887Z,12.63
2023-08-07T00:14:00.485Z,12.77
2023-08-07T00:16:27.195Z,13.15
2023-08-07T00:18:57.133Z,12.70
2023-08-07T00:23:51.985Z,12.38
2023-08-07T00:26:19.170Z,12.25
2023-08-07T00:28:45.923Z,11.60
2023-08-07T00:31:13.510Z,12.10
2023-08-07T00:33:40.216Z,11.88
2023-08-07T00:36:06.842Z,12.05
2023-08-07T00:38:33.385Z,11.70
2023-08-07T00:41:01.035Z,11.55
2023-08-07T00:43:27.651Z,11.90
2023-08-07T00:45:54.753Z,12.20
2023-08-07T00:48:21.959Z,11.75
2023-08-07T00:50:50.011Z,12.45
2023-08-07T00:53:16.995Z,12.13
2023-08-07T00:55:43.971Z,12.45
2023-08-07T00:58:11.695Z,11.70
2023-08-07T01:00:38.392Z,12.55
2023-08-07T01:03:07.940Z,11.93
2023-08-07T01:05:35.729Z,11.98
2023-08-07T01:08:04.175Z,12.50
2023-08-07T01:10:56.820Z,12.48
2023-08-07T01:13:50.026Z,12.18
2023-08-07T01:16:38.961Z,12.85
2023-08-07T01:19:12.007Z,12.38
2023-08-07T01:21:38.803Z,11.68
2023-08-07T01:24:05.586Z,12.40
2023-08-07T01:26:33.586Z,12.27
2023-08-07T01:29:13.120Z,12.30
2023-08-07T01:31:41.813Z,12.32
2023-08-07T01:34:09.816Z,12.13
2023-08-07T01:36:38.371Z,11.82
2023-08-07T01:39:08.027Z,12.32
2023-08-07T01:41:37.004Z,11.73
2023-08-07T01:44:04.937Z,11.90
2023-08-07T01:46:31.583Z,11.90
2023-08-07T01:48:58.103Z,12.40
2023-08-07T01:51:24.597Z,12.10
2023-08-07T01:53:51.224Z,12.15
2023-08-07T01:56:17.764Z,11.82
2023-08-07T01:58:44.241Z,11.68
2023-08-07T02:01:10.782Z,12.57
2023-08-07T02:03:37.380Z,12.55
2023-08-07T02:06:04.450Z,11.82
2023-08-07T02:08:30.932Z,12.05
2023-08-07T02:10:57.978Z,11.98
2023-08-07T02:13:24.579Z,11.68
2023-08-07T02:15:51.061Z,12.10
2023-08-07T02:18:17.602Z,12.38
2023-08-07T02:20:44.899Z,12.30
2023-08-07T02:23:11.380Z,12.75
2023-08-07T02:25:37.822Z,12.10
2023-08-07T02:28:04.473Z,11.82
2023-08-07T02:30:32.267Z,11.48
2023-08-07T02:32:58.783Z,11.32
2023-08-07T02:35:25.695Z,11.85
2023-08-07T02:37:52.167Z,11.73
2023-08-07T02:40:20.124Z,11.95
2023-08-07T02:42:46.726Z,11.93
2023-08-07T02:45:22.233Z,11.30
2023-08-07T02:47:48.894Z,11.93
2023-08-07T02:50:15.762Z,11.63
2023-08-07T02:52:44.368Z,11.80
2023-08-07T02:55:12.351Z,11.48
2023-08-07T02:57:38.821Z,11.57
2023-08-07T03:00:06.097Z,11.70
2023-08-07T03:02:32.583Z,11.57
2023-08-07T03:04:59.282Z,11.40
2023-08-07T03:07:26.158Z,11.25
2023-08-07T03:09:52.610Z,12.00
2023-08-07T03:12:19.030Z,11.10
2023-08-07T03:14:45.606Z,11.60
2023-08-07T03:17:12.074Z,11.00
2023-08-07T03:19:38.538Z,11.70
2023-08-07T03:22:05.142Z,11.30
2023-08-07T03:24:31.852Z,11.52
2023-08-07T03:26:58.402Z,11.45
2023-08-07T03:29:24.938Z,11.40
2023-08-07T03:31:51.526Z,11.07
2023-08-07T03:34:18.063Z,11.70
2023-08-07T03:36:46.205Z,10.05
2023-08-07T03:39:13.353Z,9.93
2023-08-07T03:41:39.823Z,9.70
2023-08-07T03:44:06.588Z,10.77
2023-08-07T03:46:33.322Z,10.15
2023-08-07T03:48:59.829Z,9.77
2023-08-07T03:51:26.383Z,9.30
2023-08-07T03:53:52.866Z,9.40
2023-08-07T03:56:19.467Z,9.95
2023-08-07T03:58:45.981Z,9.65
2023-08-07T04:01:12.596Z,9.32
2023-08-07T04:03:39.621Z,9.30
2023-08-07T04:06:06.961Z,9.15
2023-08-07T04:08:33.716Z,9.35
2023-08-07T04:11:01.619Z,9.02
2023-08-07T04:13:29.259Z,9.80
2023-08-07T04:15:56.184Z,9.55
2023-08-07T04:18:23.134Z,9.20
2023-08-07T04:20:53.754Z,9.50
2023-08-07T04:23:20.753Z,9.52
2023-08-07T04:25:51.000Z,9.73
2023-08-07T04:28:17.732Z,10.00
2023-08-07T04:30:45.081Z,9.10
2023-08-07T04:33:11.964Z,9.68
2023-08-07T04:35:38.458Z,9.13
2023-08-07T04:38:05.080Z,10.07
2023-08-07T04:40:31.727Z,9.20
2023-08-07T04:42:58.509Z,10.00
2023-08-07T04:45:25.114Z,9.65
2023-08-07T04:47:51.955Z,9.68
2023-08-07T04:50:19.003Z,9.65
2023-08-07T04:52:45.795Z,9.32
2023-08-07T04:55:12.697Z,10.40
2023-08-07T04:57:39.247Z,9.63
2023-08-07T05:00:06.806Z,9.80
2023-08-07T05:02:33.711Z,9.73
2023-08-07T05:05:00.624Z,9.77
2023-08-07T05:07:27.120Z,9.63
2023-08-07T05:09:54.605Z,10.48
2023-08-07T05:12:21.115Z,11.10
2023-08-07T05:14:47.595Z,10.80
2023-08-07T05:17:14.917Z,11.30
2023-08-07T05:19:41.408Z,11.07
2023-08-07T05:22:07.853Z,10.60
2023-08-07T05:24:40.241Z,10.45
2023-08-07T05:27:09.304Z,10.52
2023-08-07T05:29:44.373Z,10.30
2023-08-07T05:32:12.452Z,10.45
2023-08-07T05:34:39.396Z,10.43
2023-08-07T05:37:07.121Z,10.23
2023-08-07T05:39:34.015Z,10.10
2023-08-07T05:42:00.825Z,10.40
2023-08-07T05:44:27.435Z,9.55
2023-08-07T05:46:53.892Z,9.77
2023-08-07T05:49:23.956Z,9.90
2023-08-07T05:51:52.045Z,9.98
2023-08-07T05:54:18.539Z,10.82
2023-08-07T05:56:44.989Z,11.43
2023-08-07T05:59:11.635Z,10.88
2023-08-07T06:01:38.146Z,10.80
2023-08-07T06:04:05.009Z,10.60
2023-08-07T06:06:35.605Z,11.50
2023-08-07T06:09:03.658Z,11.52
2023-08-07T06:11:30.268Z,11.25
2023-08-07T06:13:57.122Z,10.10
2023-08-07T06:16:23.618Z,11.18
2023-08-07T06:18:50.124Z,11.60
2023-08-07T06:21:16.980Z,10.68
2023-08-07T06:23:43.433Z,11.05
2023-08-07T06:26:09.890Z,10.93
2023-08-07T06:28:37.692Z,11.25
2023-08-07T06:31:05.585Z,10.68
2023-08-07T06:33:32.363Z,11.88
2023-08-07T06:35:59.189Z,10.73
2023-08-07T06:38:25.991Z,12.20
2023-08-07T06:40:52.792Z,11.20
2023-08-07T06:43:19.571Z,11.35
2023-08-07T06:45:56.571Z,12.07
2023-08-07T06:48:23.571Z,11.77
2023-08-07T06:50:51.645Z,12.13
2023-08-07T06:53:18.663Z,12.50
2023-08-07T06:55:45.700Z,12.10
2023-08-07T06:58:12.259Z,12.35
2023-08-07T07:00:38.811Z,12.75
2023-08-07T07:03:06.022Z,12.15
2023-08-07T07:05:33.825Z,11.90
2023-08-07T07:08:00.654Z,11.68
2023-08-07T07:10:27.094Z,12.38
2023-08-07T07:12:53.582Z,11.88
2023-08-07T07:15:20.088Z,11.43
2023-08-07T07:17:46.841Z,11.50
2023-08-07T07:20:13.693Z,12.05
2023-08-07T07:22:40.164Z,11.35
2023-08-07T07:25:07.168Z,11.55
2023-08-07T07:27:33.649Z,23.52
2023-08-07T07:30:00.208Z,25.70
2023-08-07T07:32:27.372Z,24.83
2023-08-07T07:34:53.941Z,23.65
2023-08-07T07:37:20.451Z,23.75
2023-08-07T07:39:46.961Z,20.55
2023-08-07T07:42:13.490Z,20.17
2023-08-07T07:44:40.794Z,20.50
2023-08-07T07:47:09.636Z,19.77
2023-08-07T07:49:38.021Z,18.30
2023-08-07T07:52:04.985Z,16.98
2023-08-07T07:54:31.575Z,16.33
2023-08-07T07:56:58.462Z,15.75
2023-08-07T07:59:25.147Z,14.40
2023-08-07T08:01:52.458Z,14.40
2023-08-07T08:04:20.519Z,13.75
2023-08-07T08:06:49.405Z,13.82
2023-08-07T08:09:16.704Z,14.07
2023-08-07T08:11:43.387Z,13.32
2023-08-07T08:14:10.382Z,26.70
2023-08-07T08:16:36.897Z,28.95
2023-08-07T08:19:03.717Z,26.65
2023-08-07T08:21:31.938Z,28.23
2023-08-07T08:23:58.435Z,30.00
2023-08-07T08:26:24.967Z,29.17
2023-08-07T08:28:51.391Z,30.95
2023-08-07T08:31:17.896Z,24.00
2023-08-07T08:33:44.436Z,22.90
2023-08-07T08:36:10.940Z,21.90
2023-08-07T08:38:37.396Z,19.65
2023-08-07T08:41:04.895Z,18.60
2023-08-07T08:43:35.639Z,20.40
2023-08-07T08:46:02.298Z,28.23
2023-08-07T08:48:32.470Z,26.58
2023-08-07T08:53:26.527Z,18.13
2023-08-07T08:55:53.260Z,17.20
2023-08-07T08:58:22.238Z,16.75
2023-08-07T09:00:49.565Z,16.27
2023-08-07T09:03:16.308Z,14.52
2023-08-07T09:05:43.393Z,14.27
2023-08-07T09:08:11.080Z,14.75
2023-08-07T09:10:38.999Z,12.20
2023-08-07T09:13:12.018Z,13.63
2023-08-07T09:15:40.809Z,15.63
2023-08-07T09:18:08.891Z,13.73
2023-08-07T09:20:37.557Z,17.85
2023-08-07T09:23:04.055Z,15.85
2023-08-07T09:25:32.261Z,17.55
2023-08-07T09:27:58.882Z,18.35
2023-08-07T09:30:29.994Z,17.90
2023-08-07T09:33:03.496Z,15.43
2023-08-07T09:35:32.256Z,15.55
2023-08-07T09:37:59.519Z,17.42
2023-08-07T09:40:26.112Z,16.05
2023-08-07T09:42:54.453Z,16.75
2023-08-07T09:45:25.696Z,17.17
2023-08-07T09:48:03.069Z,16.10
2023-08-07T09:50:30.892Z,15.55
2023-08-07T09:52:59.147Z,17.25
2023-08-07T09:55:26.860Z,14.55
2023-08-07T09:57:54.050Z,17.02
2023-08-07T10:00:21.257Z,15.23
2023-08-07T10:02:51.771Z,13.65
2023-08-07T10:05:18.666Z,15.88
2023-08-07T10:07:45.259Z,14.98
2023-08-07T10:10:12.015Z,14.35
2023-08-07T10:12:42.254Z,16.60
2023-08-07T10:15:09.512Z,14.98
2023-08-07T10:17:36.122Z,15.77
2023-08-07T10:20:02.746Z,14.13
2023-08-07T10:22:31.908Z,16.55
2023-08-07T10:25:01.946Z,13.98
2023-08-07T10:27:32.295Z,13.60
2023-08-07T10:30:01.241Z,13.88
2023-08-07T10:32:28.910Z,14.50
2023-08-07T10:34:55.674Z,14.38
2023-08-07T10:37:44.742Z,15.88
2023-08-07T10:40:13.693Z,15.30
2023-08-07T10:43:14.134Z,15.47
2023-08-07T10:45:40.829Z,15.07
2023-08-07T10:48:09.528Z,14.05
2023-08-07T10:50:49.689Z,14.32
2023-08-07T10:53:31.129Z,13.38
2023-08-07T10:56:01.072Z,13.50
2023-08-07T10:58:35.460Z,14.20
2023-08-07T11:01:23.293Z,13.65
2023-08-07T11:04:14.284Z,16.80
2023-08-07T11:06:42.599Z,15.18
2023-08-07T11:09:10.780Z,15.15
2023-08-07T11:11:45.998Z,14.35
2023-08-07T11:14:17.282Z,13.75
2023-08-07T11:16:45.308Z,14.85
2023-08-07T11:19:14.133Z,14.55
2023-08-07T11:21:44.097Z,15.00
2023-08-07T11:24:14.472Z,17.20
2023-08-07T11:26:43.687Z,14.38
2023-08-07T11:29:10.491Z,15.03
2023-08-07T11:31:37.346Z,15.70
2023-08-07T11:34:04.056Z,15.57
2023-08-07T11:36:30.907Z,15.55
2023-08-07T11:38:57.676Z,13.77
2023-08-07T11:41:24.287Z,13.60
2023-08-07T11:43:50.774Z,14.25
2023-08-07T11:46:17.347Z,13.48
2023-08-07T11:48:48.460Z,13.80
2023-08-07T11:51:15.229Z,13.52
2023-08-07T11:53:43.033Z,16.20
2023-08-07T11:56:16.949Z,16.27
2023-08-07T11:58:48.642Z,13.98
2023-08-07T12:01:15.502Z,13.85
2023-08-07T12:04:09.522Z,14.18
2023-08-07T12:06:37.600Z,15.00
2023-08-07T12:09:04.506Z,14.20
2023-08-07T12:11:31.793Z,14.07
2023-08-07T12:14:01.701Z,14.10
2023-08-07T12:16:33.944Z,14.77
2023-08-07T12:19:00.379Z,17.02
2023-08-07T12:21:27.224Z,13.85
2023-08-07T12:23:56.828Z,14.63
2023-08-07T12:26:23.491Z,14.85
2023-08-07T12:28:50.826Z,15.57
2023-08-07T12:31:18.742Z,14.68
2023-08-07T12:33:45.445Z,15.82
2023-08-07T12:38:44.569Z,19.60
2023-08-07T12:41:44.834Z,16.63
2023-08-07T12:43:57.560Z,16.83
2023-08-07T12:48:53.442Z,14.30
2023-08-07T12:51:20.031Z,15.40
2023-08-07T12:53:46.636Z,15.63
2023-08-07T12:56:13.424Z,16.60
2023-08-07T12:58:42.331Z,19.65
2023-08-07T13:01:10.196Z,16.73
2023-08-07T13:03:36.665Z,16.00
2023-08-07T13:06:06.573Z,16.15
2023-08-07T13:08:34.612Z,15.48
2023-08-07T13:11:01.860Z,16.55
2023-08-07T13:13:31.930Z,17.33
2023-08-07T13:18:25.592Z,16.00
2023-08-07T13:20:51.984Z,15.70
2023-08-07T13:23:18.435Z,15.93
2023-08-07T13:25:44.869Z,14.10
2023-08-07T13:28:11.333Z,14.70
2023-08-07T13:30:38.228Z,15.93
2023-08-07T13:33:05.060Z,14.13
2023-08-07T13:35:33.979Z,15.23
2023-08-07T13:38:00.921Z,14.52
2023-08-07T13:40:27.494Z,18.38
2023-08-07T13:42:54.356Z,15.32
2023-08-07T13:45:21.198Z,17.00
2023-08-07T13:47:47.696Z,16.88
2023-08-07T13:50:14.296Z,14.90
2023-08-07T13:52:40.852Z,14.55
2023-08-07T13:55:09.964Z,14.40
2023-08-07T13:57:36.617Z,14.85
2023-08-07T14:00:03.979Z,15.45
2023-08-07T14:02:31.406Z,15.48
2023-08-07T14:04:58.496Z,14.40
2023-08-07T14:07:24.991Z,15.23
2023-08-07T14:09:51.438Z,15.20
2023-08-07T14:12:17.953Z,15.65
2023-08-07T14:14:44.505Z,13.95
2023-08-07T14:17:10.954Z,14.30
2023-08-07T14:19:37.448Z,14.20
2023-08-07T14:22:04.114Z,14.65
2023-08-07T14:24:30.813Z,14.68
2023-08-07T14:26:57.254Z,14.68
2023-08-07T14:29:23.758Z,14.00
2023-08-07T14:31:50.207Z,14.25
2023-08-07T14:34:16.914Z,16.63
2023-08-07T14:36:43.478Z,17.50
2023-08-07T14:39:10.006Z,17.42
2023-08-07T14:41:36.535Z,15.30
2023-08-07T14:44:03.071Z,18.02
2023-08-07T14:46:29.619Z,16.02
2023-08-07T14:48:56.777Z,14.48
2023-08-07T14:51:23.311Z,15.23
2023-08-07T14:53:50.161Z,15.98
2023-08-07T14:56:16.675Z,26.75
2023-08-07T14:58:43.123Z,29.67
2023-08-07T15:01:09.594Z,28.38
2023-08-07T15:03:36.092Z,29.35
2023-08-07T15:06:02.669Z,28.35
2023-08-07T15:08:29.139Z,30.70
2023-08-07T15:10:55.651Z,34.30
2023-08-07T15:13:22.169Z,31.40
2023-08-07T15:15:48.738Z,32.03
2023-08-07T15:18:15.374Z,32.80
2023-08-07T15:20:41.910Z,35.25
2023-08-07T15:23:08.577Z,33.95
2023-08-07T15:25:35.123Z,31.75
2023-08-07T15:28:02.468Z,36.58
2023-08-07T15:30:30.154Z,31.65
2023-08-07T15:32:57.393Z,31.67
2023-08-07T15:35:24.403Z,31.13
2023-08-07T15:37:50.960Z,32.88
2023-08-07T15:40:17.494Z,33.20
2023-08-07T15:42:46.557Z,33.00
2023-08-07T15:45:14.244Z,34.13
2023-08-07T15:47:40.991Z,33.22
2023-08-07T15:50:07.825Z,33.35
2023-08-07T15:52:34.359Z,34.25
2023-08-07T15:55:00.965Z,34.65
2023-08-07T15:57:27.414Z,34.50
2023-08-07T15:59:54.071Z,34.78
2023-08-07T16:02:20.638Z,34.63
2023-08-07T16:04:47.220Z,34.00
2023-08-07T16:07:13.811Z,33.95
2023-08-07T16:09:40.244Z,34.35
2023-08-07T16:12:07.233Z,34.60
2023-08-07T16:14:36.357Z,33.80
2023-08-07T16:17:05.752Z,35.22
2023-08-07T16:19:32.617Z,30.55
2023-08-07T16:21:59.063Z,28.75
2023-08-07T16:24:25.561Z,25.88
2023-08-07T16:26:52.028Z,22.35
2023-08-07T16:29:18.857Z,18.50
2023-08-07T16:31:45.416Z,18.70
2023-08-07T16:34:12.051Z,18.85
2023-08-07T16:36:38.949Z,18.63
2023-08-07T16:39:05.391Z,17.83
2023-08-07T16:41:31.999Z,17.80
2023-08-07T16:43:58.582Z,16.80
2023-08-07T16:46:25.076Z,15.98
2023-08-07T16:48:51.656Z,16.63
2023-08-07T16:51:19.878Z,17.05
2023-08-07T16:53:49.060Z,15.50
2023-08-07T16:56:16.004Z,15.77
2023-08-07T16:58:44.984Z,15.90
2023-08-07T17:01:11.514Z,15.27
2023-08-07T17:03:38.030Z,16.73
2023-08-07T17:06:04.654Z,16.30
2023-08-07T17:08:31.335Z,15.63
2023-08-07T17:10:57.760Z,16.40
2023-08-07T17:13:24.733Z,15.13
2023-08-07T17:15:51.398Z,15.10
2023-08-07T17:18:18.060Z,15.52
2023-08-07T17:20:44.754Z,15.07
2023-08-07T17:23:11.369Z,15.48
2023-08-07T17:25:37.814Z,14.70
2023-08-07T17:28:04.898Z,14.40
2023-08-07T17:30:31.448Z,14.85
2023-08-07T17:32:58.179Z,14.10
2023-08-07T17:35:25.290Z,21.42
2023-08-07T17:37:51.804Z,19.73
2023-08-07T17:40:18.344Z,15.90
2023-08-07T17:42:44.919Z,15.57
2023-08-07T17:45:13.368Z,15.60
2023-08-07T17:47:42.354Z,14.80
2023-08-07T17:50:10.410Z,15.20
2023-08-07T17:52:38.981Z,19.85
2023-08-07T17:55:06.405Z,26.98
2023-08-07T17:57:33.153Z,25.00
2023-08-07T17:59:59.700Z,23.98
2023-08-07T18:02:26.352Z,23.05
2023-08-07T18:04:52.968Z,20.83
2023-08-07T18:07:19.629Z,16.67
2023-08-07T18:09:46.160Z,15.90
2023-08-07T18:12:12.715Z,15.52
2023-08-07T18:14:39.595Z,15.38
2023-08-07T18:17:06.443Z,15.65
2023-08-07T18:19:33.058Z,15.60
2023-08-07T18:22:00.901Z,31.65
2023-08-07T18:24:27.975Z,32.65
2023-08-07T18:26:54.705Z,32.92
2023-08-07T18:29:21.285Z,32.67
2023-08-07T18:31:48.296Z,32.30
2023-08-07T18:34:14.778Z,32.75
2023-08-07T18:36:41.836Z,32.70
2023-08-07T18:39:08.441Z,32.47
2023-08-07T18:41:35.186Z,32.42
2023-08-07T18:44:03.102Z,33.45
2023-08-07T18:46:29.771Z,33.10
2023-08-07T18:48:56.339Z,33.08
2023-08-07T18:51:22.902Z,32.17
2023-08-07T18:53:49.399Z,33.08
2023-08-07T18:56:15.889Z,33.30
2023-08-07T18:58:42.434Z,33.72
2023-08-07T19:01:09.518Z,33.03
2023-08-07T19:03:36.238Z,32.97
2023-08-07T19:06:06.255Z,32.53
2023-08-07T19:08:36.016Z,32.38
2023-08-07T19:11:02.624Z,32.85
2023-08-07T19:13:29.178Z,32.50
2023-08-07T19:15:57.266Z,33.60
2023-08-07T19:18:24.670Z,31.00
2023-08-07T19:20:52.202Z,30.98
2023-08-07T19:23:19.072Z,31.25
2023-08-07T19:25:46.006Z,30.98
2023-08-07T19:28:13.834Z,30.42
2023-08-07T19:30:40.698Z,29.05
2023-08-07T19:33:10.770Z,27.50
2023-08-07T19:35:38.301Z,25.52
2023-08-07T19:38:05.001Z,24.25
2023-08-07T19:40:31.776Z,23.52
2023-08-07T19:42:58.366Z,22.40
2023-08-07T19:45:24.935Z,21.77
2023-08-07T19:47:51.490Z,20.08
2023-08-07T19:50:17.989Z,18.42
2023-08-07T19:52:44.440Z,17.73
2023-08-07T19:55:11.450Z,20.10
2023-08-07T19:57:38.858Z,19.27
2023-08-07T20:00:06.624Z,18.75
2023-08-07T20:02:34.225Z,18.75
2023-08-07T20:05:00.970Z,19.77
2023-08-07T20:07:27.694Z,18.95
2023-08-07T20:09:54.189Z,17.63
2023-08-07T20:12:21.850Z,18.50
2023-08-07T20:14:48.538Z,18.05
2023-08-07T20:17:15.098Z,17.75
2023-08-07T20:19:41.695Z,17.38
2023-08-07T20:22:08.450Z,17.50
2023-08-07T20:24:34.960Z,17.10
2023-08-07T20:27:01.489Z,16.88
2023-08-07T20:29:28.505Z,16.55
2023-08-07T20:31:55.009Z,17.30
2023-08-07T20:34:21.549Z,16.30
2023-08-07T20:36:48.051Z,16.25
2023-08-07T20:39:14.865Z,15.88
2023-08-07T20:41:41.378Z,16.75
2023-08-07T20:44:07.827Z,16.27
2023-08-07T20:46:34.307Z,15.45
2023-08-07T20:49:01.052Z,15.50
2023-08-07T20:51:27.572Z,15.30
2023-08-07T20:53:54.017Z,15.52
2023-08-07T20:56:20.579Z,14.98
2023-08-07T20:58:47.167Z,14.77
2023-08-07T21:01:13.779Z,14.32
2023-08-07T21:03:40.314Z,14.70
2023-08-07T21:06:06.776Z,13.85
2023-08-07T21:08:33.443Z,14.20
2023-08-07T21:11:00.065Z,14.43
2023-08-07T21:13:26.520Z,14.40
2023-08-07T21:15:53.036Z,13.98
2023-08-07T21:18:19.685Z,13.70
2023-08-07T21:20:46.374Z,13.18
2023-08-07T21:23:16.630Z,13.38
2023-08-07T21:25:43.335Z,13.38
2023-08-07T21:28:10.630Z,13.77
2023-08-07T21:30:37.716Z,12.82
2023-08-07T21:33:04.967Z,13.75
2023-08-07T21:35:31.650Z,14.52
2023-08-07T21:37:58.170Z,14.43
2023-08-07T21:40:24.868Z,13.20
2023-08-07T21:42:51.491Z,13.60
2023-08-07T21:45:18.051Z,13.27
2023-08-07T21:47:45.511Z,13.40
2023-08-07T21:50:12.423Z,13.40
2023-08-07T21:52:39.038Z,13.30
2023-08-07T21:55:06.070Z,13.48
2023-08-07T21:57:34.016Z,13.20
2023-08-07T22:00:00.731Z,13.73
2023-08-07T22:02:27.565Z,14.75
2023-08-07T22:04:54.265Z,18.33
2023-08-07T22:07:20.751Z,17.33
2023-08-07T22:09:47.385Z,15.68
2023-08-07T22:12:13.945Z,15.90
2023-08-07T22:14:40.458Z,15.00
2023-08-07T22:17:07.938Z,14.63
2023-08-07T22:19:34.955Z,14.40
2023-08-07T22:22:02.287Z,14.65
2023-08-07T22:24:28.900Z,14.35
2023-08-07T22:26:55.362Z,14.50
2023-08-07T22:29:21.836Z,14.30
2023-08-07T22:31:48.337Z,14.55
2023-08-07T22:34:15.039Z,14.23
2023-08-07T22:36:41.586Z,14.00
2023-08-07T22:39:08.109Z,13.32
2023-08-07T22:41:34.918Z,13.88
2023-08-07T22:44:02.103Z,13.88
2023-08-07T22:46:28.646Z,14.25
2023-08-07T22:48:55.275Z,14.25
2023-08-07T22:51:21.926Z,13.35
2023-08-07T22:53:48.481Z,13.85
2023-08-07T22:56:14.986Z,14.07
2023-08-07T22:58:41.615Z,14.02
2023-08-07T23:01:08.674Z,15.60
2023-08-07T23:03:35.180Z,16.02
2023-08-07T23:06:01.960Z,16.88
2023-08-07T23:08:28.449Z,21.15
2023-08-07T23:10:54.982Z,27.70
2023-08-07T23:13:21.556Z,29.20
2023-08-07T23:15:48.244Z,30.30
2023-08-07T23:18:15.067Z,32.55
2023-08-07T23:20:41.752Z,32.65
2023-08-07T23:23:08.325Z,32.28
2023-08-07T23:25:35.578Z,31.90
2023-08-07T23:28:02.628Z,31.83
2023-08-07T23:30:30.063Z,32.80
2023-08-07T23:32:56.718Z,32.70
2023-08-07T23:35:23.322Z,32.08
2023-08-07T23:37:49.830Z,32.08
2023-08-07T23:40:16.333Z,31.42
2023-08-07T23:42:42.921Z,31.90
2023-08-07T23:45:09.894Z,31.85
2023-08-07T23:47:36.758Z,32.85
2023-08-07T23:50:03.442Z,32.28
2023-08-07T23:52:30.248Z,32.25
2023-08-07T23:54:56.759Z,32.40
2023-08-07T23:57:23.323Z,31.67
2023-08-07T23:59:53.551Z,32.10
